createdAt,value
2023-10-08T00:01:24.731Z,2.45
2023-10-08T00:03:52.703Z,2.42
2023-10-08T00:06:21.771Z,2.50
2023-10-08T00:08:49.909Z,3.10
2023-10-08T00:11:17.736Z,2.70
2023-10-08T00:13:45.455Z,2.53
2023-10-08T00:16:17.813Z,2.03
2023-10-08T00:18:52.874Z,2.92
2023-10-08T00:21:28.842Z,3.20
2023-10-08T00:23:59.432Z,3.08
2023-10-08T00:26:30.278Z,3.28
2023-10-08T00:29:17.001Z,2.67
2023-10-08T00:31:46.497Z,2.83
2023-10-08T00:34:15.033Z,2.83
2023-10-08T00:36:43.458Z,3.13
2023-10-08T00:39:15.143Z,3.78
2023-10-08T00:41:44.211Z,2.77
2023-10-08T00:44:19.429Z,2.08
2023-10-08T00:46:49.290Z,3.40
2023-10-08T00:49:37.423Z,2.45
2023-10-08T00:52:25.598Z,3.15
2023-10-08T00:55:05.644Z,2.88
2023-10-08T00:57:37.153Z,2.88
2023-10-08T01:00:07.673Z,2.30
2023-10-08T01:02:47.317Z,2.47
2023-10-08T01:05:19.152Z,3.03
2023-10-08T01:07:49.701Z,3.63
2023-10-08T01:10:21.058Z,3.13
2023-10-08T01:13:06.489Z,2.22
2023-10-08T01:15:37.038Z,2.60
2023-10-08T01:18:15.804Z,2.35
2023-10-08T01:20:46.356Z,2.83
2023-10-08T01:23:23.562Z,3.58
2023-10-08T01:25:58.684Z,2.92
2023-10-08T01:28:30.258Z,2.83
2023-10-08T01:33:32.305Z,2.50
2023-10-08T01:36:05.125Z,2.90
2023-10-08T01:38:35.934Z,2.20
2023-10-08T01:41:11.211Z,3.17
2023-10-08T01:43:39.866Z,3.03
2023-10-08T01:46:12.464Z,2.63
2023-10-08T01:51:12.392Z,3.38
2023-10-08T01:53:39.886Z,2.72
2023-10-08T01:56:07.301Z,2.92
2023-10-08T01:58:37.080Z,3.47
2023-10-08T02:01:06.532Z,2.80
2023-10-08T02:03:34.965Z,4.05
2023-10-08T02:06:06.952Z,2.95
2023-10-08T02:08:34.060Z,2.73
2023-10-08T02:11:03.506Z,2.75
2023-10-08T02:13:31.567Z,2.88
2023-10-08T02:15:59.190Z,3.03
2023-10-08T02:18:26.860Z,2.72
2023-10-08T02:20:54.255Z,2.72
2023-10-08T02:23:21.610Z,2.55
2023-10-08T02:25:49.172Z,2.70
2023-10-08T02:28:16.985Z,3.25
2023-10-08T02:30:44.593Z,3.28
2023-10-08T02:33:18.513Z,2.88
2023-10-08T02:35:47.404Z,3.25
2023-10-08T02:38:19.230Z,3.00
2023-10-08T02:40:48.595Z,2.88
2023-10-08T02:43:17.443Z,3.38
2023-10-08T02:45:56.704Z,3.33
2023-10-08T02:48:24.381Z,2.88
2023-10-08T02:50:54.356Z,2.58
2023-10-08T02:53:26.829Z,3.20
2023-10-08T02:55:54.793Z,2.75
2023-10-08T02:58:22.027Z,3.00
2023-10-08T03:00:50.210Z,3.13
2023-10-08T03:03:20.503Z,3.05
2023-10-08T03:05:53.323Z,3.03
2023-10-08T03:08:24.752Z,2.65
2023-10-08T03:10:56.576Z,2.87
2023-10-08T03:13:24.701Z,2.70
2023-10-08T03:16:04.035Z,2.53
2023-10-08T03:18:38.226Z,2.80
2023-10-08T03:21:22.558Z,2.40
2023-10-08T03:23:52.809Z,3.10
2023-10-08T03:26:32.581Z,2.63
2023-10-08T03:29:06.562Z,3.10
2023-10-08T03:31:59.771Z,3.35
2023-10-08T03:34:35.107Z,2.55
2023-10-08T03:37:08.469Z,3.65
2023-10-08T03:39:54.154Z,2.97
2023-10-08T03:42:25.129Z,2.92
2023-10-08T03:44:53.655Z,2.63
2023-10-08T03:47:23.550Z,2.13
2023-10-08T03:49:51.717Z,2.60
2023-10-08T03:52:30.955Z,2.85
2023-10-08T03:55:17.407Z,3.08
2023-10-08T03:57:45.347Z,3.08
2023-10-08T04:00:19.892Z,2.40
2023-10-08T04:03:08.930Z,2.97
2023-10-08T04:06:03.942Z,3.30
2023-10-08T04:08:59.371Z,2.80
2023-10-08T04:11:36.665Z,2.50
2023-10-08T04:14:04.304Z,3.05
2023-10-08T04:16:37.817Z,2.50
2023-10-08T04:19:05.548Z,3.03
2023-10-08T04:21:34.893Z,2.40
2023-10-08T04:24:04.883Z,2.42
2023-10-08T04:26:32.772Z,2.83
2023-10-08T04:29:07.549Z,2.70
2023-10-08T04:31:38.516Z,3.08
2023-10-08T04:34:23.095Z,2.40
2023-10-08T04:36:56.198Z,2.58
2023-10-08T04:39:27.286Z,2.40
2023-10-08T04:41:55.190Z,3.08
2023-10-08T04:46:53.645Z,3.10
2023-10-08T04:49:30.060Z,2.70
2023-10-08T04:51:59.771Z,2.40
2023-10-08T04:54:31.243Z,3.22
2023-10-08T04:57:03.758Z,2.63
2023-10-08T04:59:35.012Z,3.00
2023-10-08T05:02:22.537Z,3.03
2023-10-08T05:05:10.351Z,2.70
2023-10-08T05:07:46.652Z,2.97
2023-10-08T05:10:38.453Z,2.70
2023-10-08T05:13:05.503Z,3.03
2023-10-08T05:15:43.280Z,3.25
2023-10-08T05:18:30.958Z,2.80
2023-10-08T05:21:03.270Z,4.20
2023-10-08T05:23:30.827Z,3.05
2023-10-08T05:26:08.005Z,3.20
2023-10-08T05:28:47.512Z,3.10
2023-10-08T05:31:15.942Z,3.42
2023-10-08T05:34:02.502Z,2.83
2023-10-08T05:36:36.820Z,3.00
2023-10-08T05:39:26.650Z,3.72
2023-10-08T05:42:06.207Z,2.67
2023-10-08T05:44:46.943Z,2.78
2023-10-08T05:47:40.315Z,3.38
2023-10-08T05:50:16.794Z,3.33
2023-10-08T05:53:00.235Z,2.92
2023-10-08T05:55:34.828Z,2.88
2023-10-08T05:58:35.887Z,2.50
2023-10-08T06:01:08.840Z,3.63
2023-10-08T06:04:05.517Z,3.00
2023-10-08T06:06:38.661Z,3.55
2023-10-08T06:09:21.875Z,3.20
2023-10-08T06:12:10.887Z,3.08
2023-10-08T06:14:56.882Z,2.67
2023-10-08T06:17:58.748Z,3.08
2023-10-08T06:20:28.005Z,2.77
2023-10-08T06:23:02.062Z,3.10
2023-10-08T06:25:29.204Z,2.53
2023-10-08T06:27:56.793Z,3.03
2023-10-08T06:30:29.931Z,3.53
2023-10-08T06:32:57.732Z,2.72
2023-10-08T06:35:28.058Z,2.80
2023-10-08T06:38:00.847Z,3.38
2023-10-08T06:40:40.104Z,2.95
2023-10-08T06:43:18.104Z,2.90
2023-10-08T06:45:48.336Z,2.92
2023-10-08T06:48:21.782Z,2.85
2023-10-08T06:50:50.302Z,2.72
2023-10-08T06:53:22.925Z,3.03
2023-10-08T06:55:58.007Z,3.33
2023-10-08T06:58:25.648Z,3.45
2023-10-08T07:00:56.135Z,3.15
2023-10-08T07:03:23.566Z,2.80
2023-10-08T07:05:58.860Z,3.05
2023-10-08T07:08:28.019Z,3.15
2023-10-08T07:10:57.562Z,3.40
2023-10-08T07:13:25.557Z,3.00
2023-10-08T07:15:53.442Z,3.10
2023-10-08T07:18:26.182Z,3.13
2023-10-08T07:20:55.135Z,3.13
2023-10-08T07:23:26.297Z,3.08
2023-10-08T07:25:58.342Z,3.40
2023-10-08T07:28:26.740Z,3.03
2023-10-08T07:30:54.081Z,2.50
2023-10-08T07:33:21.288Z,3.00
2023-10-08T07:36:12.979Z,3.28
2023-10-08T07:38:43.264Z,2.90
2023-10-08T07:41:15.591Z,4.13
2023-10-08T07:43:47.554Z,3.75
2023-10-08T07:46:16.402Z,3.00
2023-10-08T07:48:43.957Z,3.40
2023-10-08T07:51:11.085Z,3.85
2023-10-08T07:53:43.021Z,3.38
2023-10-08T07:56:12.102Z,3.70
2023-10-08T07:58:39.289Z,4.00
2023-10-08T08:01:10.633Z,3.83
2023-10-08T08:03:38.080Z,3.92
2023-10-08T08:06:09.131Z,4.13
2023-10-08T08:08:38.147Z,4.35
2023-10-08T08:11:12.779Z,3.97
2023-10-08T08:13:44.084Z,3.83
2023-10-08T08:16:22.081Z,4.53
2023-10-08T08:18:53.045Z,3.75
2023-10-08T08:21:20.855Z,3.78
2023-10-08T08:23:49.285Z,3.72
2023-10-08T08:26:30.512Z,4.03
2023-10-08T08:29:00.936Z,4.90
2023-10-08T08:31:32.432Z,4.45
2023-10-08T08:34:18.800Z,4.50
2023-10-08T08:36:49.845Z,5.75
2023-10-08T08:39:37.596Z,5.97
2023-10-08T08:42:08.085Z,6.38
2023-10-08T08:44:47.233Z,5.97
2023-10-08T08:47:18.788Z,5.97
2023-10-08T08:49:47.558Z,6.80
2023-10-08T08:52:15.374Z,5.78
2023-10-08T08:54:45.670Z,5.13
2023-10-08T08:57:15.908Z,5.78
2023-10-08T08:59:54.325Z,5.72
2023-10-08T09:02:21.842Z,5.80
2023-10-08T09:04:50.448Z,4.40
2023-10-08T09:07:22.638Z,4.93
2023-10-08T09:09:50.834Z,4.03
2023-10-08T09:12:18.743Z,4.05
2023-10-08T09:14:47.386Z,4.57
2023-10-08T09:17:18.029Z,4.78
2023-10-08T09:19:46.641Z,4.53
2023-10-08T09:22:16.141Z,5.15
2023-10-08T09:24:43.825Z,5.25
2023-10-08T09:27:19.608Z,5.57
2023-10-08T09:29:47.390Z,5.22
2023-10-08T09:32:15.097Z,5.05
2023-10-08T09:34:44.170Z,6.25
2023-10-08T09:37:12.883Z,6.15
2023-10-08T09:39:42.307Z,6.38
2023-10-08T09:42:12.821Z,5.63
2023-10-08T09:44:40.826Z,5.90
2023-10-08T09:47:11.452Z,5.05
2023-10-08T09:50:08.553Z,5.32
2023-10-08T09:52:45.960Z,5.90
2023-10-08T09:55:13.313Z,5.07
2023-10-08T09:57:42.482Z,5.43
2023-10-08T10:00:19.637Z,5.38
2023-10-08T10:02:47.753Z,5.68
2023-10-08T10:05:25.266Z,6.45
2023-10-08T10:07:56.407Z,5.82
2023-10-08T10:10:35.648Z,6.00
2023-10-08T10:13:10.094Z,5.93
2023-10-08T10:15:39.134Z,5.88
2023-10-08T10:18:14.952Z,4.97
2023-10-08T10:20:55.149Z,6.13
2023-10-08T10:23:40.982Z,5.78
2023-10-08T10:26:27.490Z,6.15
2023-10-08T10:29:15.988Z,5.63
2023-10-08T10:31:54.043Z,5.28
2023-10-08T10:34:25.001Z,6.43
2023-10-08T10:36:57.417Z,6.80
2023-10-08T10:39:33.901Z,7.30
2023-10-08T10:42:03.627Z,6.40
2023-10-08T10:44:32.101Z,7.22
2023-10-08T10:47:20.671Z,7.13
2023-10-08T10:50:15.804Z,6.13
2023-10-08T10:52:52.879Z,7.55
2023-10-08T10:55:32.413Z,7.38
2023-10-08T10:58:12.324Z,7.32
2023-10-08T11:00:43.684Z,8.13
2023-10-08T11:03:17.307Z,8.43
2023-10-08T11:05:52.481Z,8.52
2023-10-08T11:08:20.779Z,9.00
2023-10-08T11:10:51.700Z,9.10
2023-10-08T11:13:20.752Z,8.90
2023-10-08T11:15:53.044Z,7.80
2023-10-08T11:18:22.917Z,8.27
2023-10-08T11:21:03.963Z,8.82
2023-10-08T11:23:42.590Z,10.35
2023-10-08T11:26:09.937Z,8.02
2023-10-08T11:28:44.268Z,8.82
2023-10-08T11:31:12.525Z,8.40
2023-10-08T11:33:49.487Z,8.82
2023-10-08T11:36:21.571Z,8.43
2023-10-08T11:38:49.052Z,7.50
2023-10-08T11:41:23.955Z,6.93
2023-10-08T11:43:57.793Z,6.10
2023-10-08T11:46:27.074Z,6.60
2023-10-08T11:48:58.917Z,6.10
2023-10-08T11:51:28.429Z,5.80
2023-10-08T11:53:57.508Z,6.50
2023-10-08T11:56:25.399Z,6.03
2023-10-08T11:58:53.473Z,7.35
2023-10-08T12:01:21.450Z,6.22
2023-10-08T12:03:51.068Z,6.35
2023-10-08T12:06:22.152Z,6.22
2023-10-08T12:08:54.552Z,6.38
2023-10-08T12:13:51.122Z,7.38
2023-10-08T12:16:24.436Z,6.90
2023-10-08T12:18:55.037Z,6.43
2023-10-08T12:21:22.831Z,6.85
2023-10-08T12:23:52.413Z,7.22
2023-10-08T12:26:20.229Z,7.10
2023-10-08T12:28:49.613Z,7.18
2023-10-08T12:31:18.061Z,6.85
2023-10-08T12:33:45.328Z,7.60
2023-10-08T12:36:13.038Z,7.32
2023-10-08T12:38:44.608Z,7.45
2023-10-08T12:41:15.477Z,7.45
2023-10-08T12:43:46.664Z,7.55
2023-10-08T12:46:19.551Z,7.63
2023-10-08T12:48:49.510Z,7.03
2023-10-08T12:51:17.060Z,6.93
2023-10-08T12:53:51.842Z,6.43
2023-10-08T12:56:22.882Z,7.00
2023-10-08T12:58:50.198Z,5.70
2023-10-08T13:01:21.110Z,6.78
2023-10-08T13:03:51.117Z,7.20
2023-10-08T13:06:23.337Z,7.55
2023-10-08T13:08:53.742Z,6.40
2023-10-08T13:11:23.462Z,6.85
2023-10-08T13:13:51.555Z,6.10
2023-10-08T13:16:24.241Z,6.20
2023-10-08T13:18:53.132Z,6.43
2023-10-08T13:21:20.530Z,7.10
2023-10-08T13:23:47.817Z,6.95
2023-10-08T13:26:23.711Z,5.90
2023-10-08T13:28:51.090Z,6.30
2023-10-08T13:31:20.278Z,6.47
2023-10-08T13:33:50.122Z,4.95
2023-10-08T13:36:19.538Z,5.38
2023-10-08T13:38:47.637Z,6.55
2023-10-08T13:41:19.185Z,6.53
2023-10-08T13:43:52.588Z,6.55
2023-10-08T13:46:23.803Z,6.22
2023-10-08T13:48:51.162Z,5.40
2023-10-08T13:51:26.782Z,6.82
2023-10-08T13:54:00.445Z,5.68
2023-10-08T13:56:31.060Z,6.10
2023-10-08T13:59:12.806Z,6.10
2023-10-08T14:01:44.437Z,6.88
2023-10-08T14:04:12.488Z,5.87
2023-10-08T14:06:49.511Z,6.55
2023-10-08T14:09:22.542Z,7.30
2023-10-08T14:11:54.128Z,6.40
2023-10-08T14:14:25.439Z,5.72
2023-10-08T14:16:54.973Z,6.45
2023-10-08T14:19:30.019Z,5.82
2023-10-08T14:22:04.095Z,6.53
2023-10-08T14:24:36.560Z,6.90
2023-10-08T14:29:51.216Z,7.75
2023-10-08T14:32:18.910Z,6.72
2023-10-08T14:34:55.195Z,7.00
2023-10-08T14:37:42.106Z,7.40
2023-10-08T14:40:28.285Z,7.10
2023-10-08T14:43:03.516Z,6.43
2023-10-08T14:45:36.091Z,7.10
2023-10-08T14:48:03.586Z,8.50
2023-10-08T14:50:34.121Z,6.80
2023-10-08T14:53:02.772Z,8.13
2023-10-08T14:55:31.210Z,7.95
2023-10-08T14:57:58.516Z,7.70
2023-10-08T15:00:26.022Z,8.15
2023-10-08T15:02:56.770Z,7.65
2023-10-08T15:05:24.337Z,6.65
2023-10-08T15:07:55.169Z,8.57
2023-10-08T15:10:24.900Z,8.02
2023-10-08T15:12:53.377Z,7.38
2023-10-08T15:15:20.762Z,6.78
2023-10-08T15:17:50.568Z,8.23
2023-10-08T15:20:20.908Z,8.68
2023-10-08T15:22:50.461Z,8.02
2023-10-08T15:25:19.190Z,7.85
2023-10-08T15:27:48.631Z,8.50
2023-10-08T15:30:21.308Z,8.18
2023-10-08T15:32:50.156Z,7.40
2023-10-08T15:35:21.233Z,7.82
2023-10-08T15:37:48.979Z,10.02
2023-10-08T15:40:20.892Z,7.68
2023-10-08T15:42:53.276Z,8.85
2023-10-08T15:45:21.591Z,9.67
2023-10-08T15:47:53.032Z,9.30
2023-10-08T15:50:26.590Z,8.07
2023-10-08T15:52:55.643Z,8.50
2023-10-08T15:55:24.572Z,8.15
2023-10-08T15:57:54.938Z,8.50
2023-10-08T16:00:22.165Z,7.90
2023-10-08T16:02:49.993Z,8.38
2023-10-08T16:05:18.085Z,8.25
2023-10-08T16:07:46.435Z,8.05
2023-10-08T16:10:13.570Z,8.15
2023-10-08T16:12:40.918Z,9.20
2023-10-08T16:15:08.704Z,8.77
2023-10-08T16:17:39.143Z,7.63
2023-10-08T16:20:14.532Z,9.18
2023-10-08T16:22:43.319Z,8.18
2023-10-08T16:25:15.945Z,9.30
2023-10-08T16:32:44.514Z,9.45
2023-10-08T16:35:12.731Z,8.82
2023-10-08T16:37:41.171Z,12.00
2023-10-08T16:40:09.072Z,10.02
2023-10-08T16:42:36.339Z,10.80
2023-10-08T16:45:06.153Z,9.57
2023-10-08T16:47:33.693Z,9.05
2023-10-08T16:50:01.435Z,9.77
2023-10-08T16:52:28.716Z,9.70
2023-10-08T16:54:55.822Z,10.10
2023-10-08T16:57:23.800Z,9.63
2023-10-08T16:59:53.067Z,12.43
2023-10-08T17:02:20.214Z,9.70
2023-10-08T17:04:47.332Z,10.35
2023-10-08T17:07:16.656Z,9.82
2023-10-08T17:09:43.744Z,8.90
2023-10-08T17:12:10.981Z,8.38
2023-10-08T17:14:39.819Z,7.40
2023-10-08T17:17:06.872Z,6.45
2023-10-08T17:19:34.240Z,5.32
2023-10-08T17:22:01.246Z,4.85
2023-10-08T17:24:29.445Z,4.78
2023-10-08T17:27:11.756Z,3.70
2023-10-08T17:29:42.485Z,4.05
2023-10-08T17:32:09.606Z,4.25
2023-10-08T17:34:37.284Z,3.65
2023-10-08T17:37:04.578Z,4.63
2023-10-08T17:39:31.578Z,4.28
2023-10-08T17:41:58.733Z,4.60
2023-10-08T17:44:28.122Z,4.32
2023-10-08T17:46:55.668Z,4.10
2023-10-08T17:49:23.035Z,3.47
2023-10-08T17:51:50.073Z,3.22
2023-10-08T17:54:17.205Z,3.08
2023-10-08T17:56:44.358Z,3.10
2023-10-08T17:59:14.767Z,2.88
2023-10-08T18:01:43.221Z,3.58
2023-10-08T18:04:14.631Z,2.80
2023-10-08T18:06:45.525Z,2.97
2023-10-08T18:09:14.048Z,2.75
2023-10-08T18:11:44.895Z,2.08
2023-10-08T18:14:14.269Z,2.47
2023-10-08T18:16:42.430Z,2.53
2023-10-08T18:19:11.881Z,2.40
2023-10-08T18:21:40.281Z,2.95
2023-10-08T18:24:09.469Z,2.53
2023-10-08T18:26:48.857Z,2.55
2023-10-08T18:29:17.284Z,1.95
2023-10-08T18:31:45.800Z,2.35
2023-10-08T18:34:16.756Z,2.42
2023-10-08T18:36:43.884Z,2.17
2023-10-08T18:39:17.789Z,1.90
2023-10-08T18:41:47.380Z,2.60
2023-10-08T18:44:17.169Z,2.83
2023-10-08T18:46:48.491Z,2.08
2023-10-08T18:49:16.547Z,2.00
2023-10-08T18:51:44.642Z,2.10
2023-10-08T18:54:13.499Z,1.95
2023-10-08T18:56:42.607Z,2.13
2023-10-08T18:59:10.353Z,2.33
2023-10-08T19:01:39.069Z,2.15
2023-10-08T19:04:07.644Z,1.75
2023-10-08T19:06:35.564Z,2.03
2023-10-08T19:09:04.798Z,1.75
2023-10-08T19:11:36.296Z,1.95
2023-10-08T19:14:04.715Z,2.50
2023-10-08T19:16:32.337Z,1.80
2023-10-08T19:19:00.083Z,1.63
2023-10-08T19:21:28.317Z,2.05
2023-10-08T19:23:56.630Z,1.83
2023-10-08T19:26:29.775Z,2.20
2023-10-08T19:28:57.349Z,1.70
2023-10-08T19:31:25.007Z,1.98
2023-10-08T19:33:53.512Z,2.10
2023-10-08T19:36:21.125Z,1.60
2023-10-08T19:38:50.699Z,2.30
2023-10-08T19:41:22.285Z,1.58
2023-10-08T19:43:52.882Z,1.40
2023-10-08T19:46:24.202Z,1.58
2023-10-08T19:48:53.011Z,1.73
2023-10-08T19:51:20.352Z,2.28
2023-10-08T19:53:52.215Z,2.03
2023-10-08T19:56:20.479Z,1.75
2023-10-08T19:58:48.083Z,2.08
2023-10-08T20:01:17.319Z,1.65
2023-10-08T20:03:45.482Z,2.10
2023-10-08T20:06:13.682Z,1.70
2023-10-08T20:08:40.843Z,2.35
2023-10-08T20:11:08.494Z,2.15
2023-10-08T20:13:38.524Z,1.60
2023-10-08T20:16:06.980Z,1.90
2023-10-08T20:18:34.635Z,1.73
2023-10-08T20:21:05.890Z,1.83
2023-10-08T20:23:36.736Z,2.22
2023-10-08T20:26:15.794Z,1.92
2023-10-08T20:28:43.222Z,1.63
2023-10-08T20:31:15.359Z,1.92
2023-10-08T20:33:44.761Z,1.95
2023-10-08T20:36:12.151Z,2.53
2023-10-08T20:38:40.245Z,1.92
2023-10-08T20:41:15.523Z,2.10
2023-10-08T20:43:42.888Z,1.70
2023-10-08T20:46:16.773Z,1.83
2023-10-08T20:48:46.187Z,2.20
2023-10-08T20:51:18.261Z,1.88
2023-10-08T20:53:46.363Z,1.73
2023-10-08T20:56:14.183Z,1.67
2023-10-08T20:58:42.923Z,1.60
2023-10-08T21:01:11.696Z,1.83
2023-10-08T21:03:39.168Z,1.88
2023-10-08T21:06:07.444Z,1.67
2023-10-08T21:08:34.591Z,2.13
2023-10-08T21:11:04.249Z,2.38
2023-10-08T21:13:31.806Z,1.83
2023-10-08T21:16:02.938Z,2.25
2023-10-08T21:18:31.927Z,1.73
2023-10-08T21:21:04.348Z,1.77
2023-10-08T21:23:31.977Z,1.85
2023-10-08T21:25:59.012Z,1.77
2023-10-08T21:28:26.182Z,2.28
2023-10-08T21:30:53.629Z,1.88
2023-10-08T21:33:20.928Z,1.67
2023-10-08T21:35:48.139Z,1.88
2023-10-08T21:38:15.342Z,1.73
2023-10-08T21:40:42.518Z,1.73
2023-10-08T21:43:10.143Z,1.90
2023-10-08T21:45:38.305Z,2.38
2023-10-08T21:48:07.100Z,2.13
2023-10-08T21:50:34.488Z,2.17
2023-10-08T21:53:02.220Z,2.75
2023-10-08T21:55:29.252Z,1.63
2023-10-08T21:57:56.310Z,2.08
2023-10-08T22:00:25.993Z,2.03
2023-10-08T22:02:59.475Z,2.45
2023-10-08T22:05:32.843Z,3.45
2023-10-08T22:08:04.605Z,2.10
2023-10-08T22:10:34.515Z,1.83
2023-10-08T22:13:07.909Z,1.88
2023-10-08T22:15:46.260Z,1.95
2023-10-08T22:18:26.105Z,2.00
2023-10-08T22:20:54.282Z,2.17
2023-10-08T22:23:22.319Z,1.50
2023-10-08T22:25:52.403Z,1.48
2023-10-08T22:28:21.050Z,1.95
2023-10-08T22:30:55.834Z,1.80
2023-10-08T22:33:34.862Z,2.30
2023-10-08T22:36:15.987Z,1.45
2023-10-08T22:38:43.886Z,2.33
2023-10-08T22:41:11.351Z,2.08
2023-10-08T22:43:40.992Z,2.00
2023-10-08T22:46:12.125Z,2.08
2023-10-08T22:48:50.881Z,1.85
2023-10-08T22:51:28.484Z,1.65
2023-10-08T22:53:57.352Z,1.73
2023-10-08T22:56:25.469Z,2.22
2023-10-08T22:58:55.991Z,2.03
2023-10-08T23:01:25.427Z,1.80
2023-10-08T23:03:53.682Z,1.95
2023-10-08T23:06:24.901Z,2.25
2023-10-08T23:08:54.587Z,1.90
2023-10-08T23:11:21.793Z,2.33
2023-10-08T23:13:51.425Z,1.95
2023-10-08T23:16:22.445Z,1.60
2023-10-08T23:18:56.135Z,2.00
2023-10-08T23:21:26.696Z,1.58
2023-10-08T23:23:54.057Z,2.45
2023-10-08T23:26:22.621Z,2.13
2023-10-08T23:28:50.416Z,1.90
2023-10-08T23:31:18.846Z,1.90
2023-10-08T23:33:50.083Z,2.75
2023-10-08T23:36:18.327Z,1.90
2023-10-08T23:38:54.037Z,2.22
2023-10-08T23:41:32.816Z,2.22
2023-10-08T23:44:03.929Z,2.30
2023-10-08T23:46:32.178Z,2.05
2023-10-08T23:49:06.354Z,2.10
2023-10-08T23:51:42.474Z,1.90
2023-10-08T23:54:26.835Z,1.58
2023-10-08T23:57:01.248Z,1.83
2023-10-08T23:59:42.632Z,2.58
